createdAt,value
2019-01-30T00:00:41.277Z,-5.91
2019-01-30T00:01:41.137Z,-5.94
2019-01-30T00:02:41.000Z,-5.82
2019-01-30T00:03:40.861Z,-5.77
2019-01-30T00:04:40.724Z,-5.83
2019-01-30T00:05:40.583Z,-5.79
2019-01-30T00:06:40.445Z,-5.77
2019-01-30T00:07:40.306Z,-5.70
2019-01-30T00:08:40.166Z,-5.72
2019-01-30T00:09:40.029Z,-5.67
2019-01-30T00:10:39.890Z,-5.70
2019-01-30T00:11:39.754Z,-5.73
2019-01-30T00:12:39.613Z,-5.62
2019-01-30T00:13:39.476Z,-5.61
2019-01-30T00:14:39.343Z,-5.56
2019-01-30T00:15:39.198Z,-5.47
2019-01-30T00:16:39.059Z,-5.51
2019-01-30T00:17:38.921Z,-5.44
2019-01-30T00:18:38.783Z,-5.58
2019-01-30T00:19:38.713Z,-5.54
2019-01-30T00:20:38.507Z,-5.54
2019-01-30T00:21:38.369Z,-5.59
2019-01-30T00:22:38.230Z,-5.54
2019-01-30T00:23:38.092Z,-5.54
2019-01-30T00:24:37.952Z,-5.45
2019-01-30T00:25:37.814Z,-5.52
2019-01-30T00:26:37.676Z,-5.43
2019-01-30T00:27:37.538Z,-5.47
2019-01-30T00:28:37.404Z,-5.49
2019-01-30T00:29:37.273Z,-5.43
2019-01-30T00:30:37.125Z,-5.43
2019-01-30T00:31:36.987Z,-5.40
2019-01-30T00:32:36.941Z,-5.51
2019-01-30T00:33:36.707Z,-5.51
2019-01-30T00:34:36.570Z,-5.54
2019-01-30T00:35:36.435Z,-5.54
2019-01-30T00:36:36.294Z,-5.44
2019-01-30T00:37:36.155Z,-5.41
2019-01-30T00:38:36.016Z,-5.47
2019-01-30T00:39:35.879Z,-5.40
2019-01-30T00:40:35.740Z,-5.38
2019-01-30T00:41:35.601Z,-5.41
2019-01-30T00:42:35.463Z,-5.35
2019-01-30T00:43:35.325Z,-5.40
2019-01-30T00:44:35.186Z,-5.31
2019-01-30T00:45:35.051Z,-5.30
2019-01-30T00:46:34.912Z,-5.27
2019-01-30T00:47:35.040Z,-5.26
2019-01-30T00:48:34.635Z,-5.30
2019-01-30T00:49:34.496Z,-5.22
2019-01-30T00:50:34.356Z,-5.22
2019-01-30T00:51:34.218Z,-5.26
2019-01-30T00:52:34.079Z,-5.22
2019-01-30T00:53:33.941Z,-5.12
2019-01-30T00:54:33.803Z,-5.12
2019-01-30T00:55:33.666Z,-5.11
2019-01-30T00:56:33.529Z,-5.03
2019-01-30T00:57:33.390Z,-5.03
2019-01-30T00:58:33.255Z,-5.00
2019-01-30T00:59:33.114Z,-5.00
2019-01-30T01:00:32.978Z,-5.03
2019-01-30T01:01:32.840Z,-5.04
2019-01-30T01:02:32.701Z,-5.08
2019-01-30T01:03:32.564Z,-5.03
2019-01-30T01:04:32.427Z,-5.07
2019-01-30T01:05:32.288Z,-5.17
2019-01-30T01:06:32.151Z,-5.20
2019-01-30T01:07:32.014Z,-5.12
2019-01-30T01:08:31.875Z,-5.11
2019-01-30T01:09:31.737Z,-5.11
2019-01-30T01:10:31.600Z,-5.12
2019-01-30T01:11:31.461Z,-5.20
2019-01-30T01:12:31.325Z,-5.26
2019-01-30T01:13:31.192Z,-5.23
2019-01-30T01:14:31.049Z,-5.26
2019-01-30T01:15:30.913Z,-5.23
2019-01-30T01:16:30.775Z,-5.27
2019-01-30T01:17:30.638Z,-5.33
2019-01-30T01:18:30.497Z,-5.30
2019-01-30T01:19:30.361Z,-5.27
2019-01-30T01:20:30.227Z,-5.23
2019-01-30T01:21:30.083Z,-5.23
2019-01-30T01:22:29.963Z,-5.27
2019-01-30T01:23:29.811Z,-5.31
2019-01-30T01:24:29.670Z,-5.26
2019-01-30T01:25:29.532Z,-5.25
2019-01-30T01:26:29.394Z,-5.30
2019-01-30T01:27:29.256Z,-5.27
2019-01-30T01:28:29.120Z,-5.35
2019-01-30T01:29:28.983Z,-5.31
2019-01-30T01:30:28.843Z,-5.38
2019-01-30T01:31:28.703Z,-5.34
2019-01-30T01:32:28.568Z,-5.35
2019-01-30T01:33:28.428Z,-5.34
2019-01-30T01:34:28.289Z,-5.41
2019-01-30T01:35:28.151Z,-5.40
2019-01-30T01:36:28.011Z,-5.47
2019-01-30T01:37:27.873Z,-5.51
2019-01-30T01:38:27.734Z,-5.52
2019-01-30T01:39:27.597Z,-5.45
2019-01-30T01:40:27.460Z,-5.59
2019-01-30T01:41:27.320Z,-5.58
2019-01-30T01:42:27.183Z,-5.58
2019-01-30T01:43:27.043Z,-5.61
2019-01-30T01:44:26.997Z,-5.56
2019-01-30T01:45:26.768Z,-5.47
2019-01-30T01:46:26.630Z,-5.44
2019-01-30T01:47:26.490Z,-5.41
2019-01-30T01:48:26.352Z,-5.40
2019-01-30T01:49:26.213Z,-5.40
2019-01-30T01:50:26.073Z,-5.40
2019-01-30T01:51:25.938Z,-5.33
2019-01-30T01:52:25.798Z,-5.38
2019-01-30T01:53:25.660Z,-5.27
2019-01-30T01:54:25.525Z,-5.31
2019-01-30T01:55:25.384Z,-5.34
2019-01-30T01:56:25.244Z,-5.23
2019-01-30T01:57:25.108Z,-5.31
2019-01-30T01:58:24.967Z,-5.35
2019-01-30T01:59:24.829Z,-5.33
2019-01-30T02:00:34.956Z,-5.33
2019-01-30T02:01:24.553Z,-5.26
2019-01-30T02:02:24.417Z,-5.30
2019-01-30T02:03:24.280Z,-5.27
2019-01-30T02:04:24.140Z,-5.25
2019-01-30T02:05:24.001Z,-5.26
2019-01-30T02:06:23.866Z,-5.23
2019-01-30T02:07:23.726Z,-5.23
2019-01-30T02:08:23.588Z,-5.22
2019-01-30T02:09:23.450Z,-5.22
2019-01-30T02:10:23.310Z,-5.25
2019-01-30T02:11:23.175Z,-5.26
2019-01-30T02:12:23.038Z,-5.27
2019-01-30T02:13:22.915Z,-5.33
2019-01-30T02:14:22.761Z,-5.31
2019-01-30T02:15:22.621Z,-5.34
2019-01-30T02:16:22.482Z,-5.37
2019-01-30T02:17:22.351Z,-5.38
2019-01-30T02:18:22.208Z,-5.41
2019-01-30T02:19:22.068Z,-5.34
2019-01-30T02:20:21.936Z,-5.38
2019-01-30T02:21:21.791Z,-5.44
2019-01-30T02:22:21.653Z,-5.55
2019-01-30T02:23:21.518Z,-5.47
2019-01-30T02:24:21.376Z,-5.47
2019-01-30T02:25:21.238Z,-5.52
2019-01-30T02:26:21.103Z,-5.45
2019-01-30T02:27:20.964Z,-5.44
2019-01-30T02:28:20.824Z,-5.56
2019-01-30T02:29:20.688Z,-5.43
2019-01-30T02:30:20.550Z,-5.45
2019-01-30T02:31:20.410Z,-5.51
2019-01-30T02:32:20.274Z,-5.51
2019-01-30T02:33:20.148Z,-5.55
2019-01-30T02:34:19.996Z,-5.61
2019-01-30T02:35:19.856Z,-5.55
2019-01-30T02:36:19.719Z,-5.55
2019-01-30T02:37:19.578Z,-5.56
2019-01-30T02:38:19.442Z,-5.61
2019-01-30T02:39:19.305Z,-5.65
2019-01-30T02:40:19.165Z,-5.62
2019-01-30T02:41:19.024Z,-5.61
2019-01-30T02:42:18.888Z,-5.63
2019-01-30T02:43:18.750Z,-5.61
2019-01-30T02:44:18.611Z,-5.67
2019-01-30T02:45:18.476Z,-5.72
2019-01-30T02:46:18.332Z,-5.65
2019-01-30T02:47:18.197Z,-5.67
2019-01-30T02:48:18.061Z,-5.73
2019-01-30T02:49:17.916Z,-5.76
2019-01-30T02:50:17.779Z,-5.80
2019-01-30T02:51:17.640Z,-5.82
2019-01-30T02:52:17.502Z,-5.77
2019-01-30T02:53:17.363Z,-5.80
2019-01-30T02:54:17.222Z,-5.80
2019-01-30T02:55:17.087Z,-5.83
2019-01-30T02:56:16.947Z,-5.80
2019-01-30T02:57:16.807Z,-5.82
2019-01-30T02:58:16.671Z,-5.92
2019-01-30T02:59:16.530Z,-5.90
2019-01-30T03:00:16.392Z,-5.92
2019-01-30T03:01:16.253Z,-5.87
2019-01-30T03:02:16.120Z,-5.92
2019-01-30T03:03:15.976Z,-5.90
2019-01-30T03:04:15.837Z,-5.87
2019-01-30T03:05:15.699Z,-5.94
2019-01-30T03:06:15.559Z,-5.77
2019-01-30T03:07:15.423Z,-5.83
2019-01-30T03:08:15.283Z,-5.82
2019-01-30T03:09:15.147Z,-5.82
2019-01-30T03:10:15.006Z,-5.80
2019-01-30T03:11:14.868Z,-5.76
2019-01-30T03:12:14.731Z,-5.74
2019-01-30T03:13:14.588Z,-5.82
2019-01-30T03:14:14.451Z,-5.70
2019-01-30T03:15:14.310Z,-5.72
2019-01-30T03:16:14.174Z,-5.73
2019-01-30T03:17:14.033Z,-5.69
2019-01-30T03:18:13.896Z,-5.70
2019-01-30T03:19:13.759Z,-5.59
2019-01-30T03:20:13.619Z,-5.63
2019-01-30T03:21:13.478Z,-5.58
2019-01-30T03:22:13.343Z,-5.65
2019-01-30T03:23:13.202Z,-5.55
2019-01-30T03:24:13.065Z,-5.45
2019-01-30T03:25:12.926Z,-5.62
2019-01-30T03:26:12.788Z,-5.47
2019-01-30T03:27:12.649Z,-5.41
2019-01-30T03:28:12.512Z,-5.45
2019-01-30T03:29:12.371Z,-5.51
2019-01-30T03:30:12.235Z,-5.40
2019-01-30T03:31:17.636Z,-5.45
2019-01-30T03:32:11.961Z,-5.43
2019-01-30T03:33:11.819Z,-5.44
2019-01-30T03:34:11.681Z,-5.54
2019-01-30T03:35:11.541Z,-5.40
2019-01-30T03:36:11.404Z,-5.45
2019-01-30T03:37:11.265Z,-5.52
2019-01-30T03:38:11.127Z,-5.44
2019-01-30T03:39:10.991Z,-5.43
2019-01-30T03:40:10.851Z,-5.49
2019-01-30T03:41:10.712Z,-5.55
2019-01-30T03:42:10.574Z,-5.55
2019-01-30T03:43:10.434Z,-5.55
2019-01-30T03:44:10.297Z,-5.47
2019-01-30T03:45:10.157Z,-5.49
2019-01-30T03:46:10.020Z,-5.56
2019-01-30T03:47:09.882Z,-5.56
2019-01-30T03:48:09.745Z,-5.51
2019-01-30T03:49:09.604Z,-5.59
2019-01-30T03:50:09.464Z,-5.61
2019-01-30T03:51:09.327Z,-5.59
2019-01-30T03:52:09.188Z,-5.54
2019-01-30T03:53:09.049Z,-5.63
2019-01-30T03:54:08.912Z,-5.65
2019-01-30T03:55:08.775Z,-5.70
2019-01-30T03:56:08.635Z,-5.70
2019-01-30T03:57:08.494Z,-5.72
2019-01-30T03:58:08.359Z,-5.76
2019-01-30T03:59:08.220Z,-5.74
2019-01-30T04:00:08.081Z,-5.76
2019-01-30T04:01:07.943Z,-5.72
2019-01-30T04:02:07.803Z,-5.72
2019-01-30T04:03:07.664Z,-5.73
2019-01-30T04:04:07.524Z,-5.80
2019-01-30T04:05:07.387Z,-5.79
2019-01-30T04:06:07.250Z,-5.79
2019-01-30T04:07:07.110Z,-5.76
2019-01-30T04:08:06.970Z,-5.73
2019-01-30T04:09:06.831Z,-5.76
2019-01-30T04:10:06.693Z,-5.73
2019-01-30T04:11:06.555Z,-5.79
2019-01-30T04:12:06.414Z,-5.74
2019-01-30T04:13:06.277Z,-5.72
2019-01-30T04:14:06.138Z,-5.73
2019-01-30T04:15:06.067Z,-5.77
2019-01-30T04:16:05.867Z,-5.70
2019-01-30T04:17:05.723Z,-5.74
2019-01-30T04:18:05.582Z,-5.70
2019-01-30T04:19:05.444Z,-5.70
2019-01-30T04:20:05.312Z,-5.67
2019-01-30T04:21:05.164Z,-5.74
2019-01-30T04:22:05.042Z,-5.70
2019-01-30T04:23:04.888Z,-5.70
2019-01-30T04:24:04.751Z,-5.73
2019-01-30T04:25:04.610Z,-5.69
2019-01-30T04:26:04.471Z,-5.67
2019-01-30T04:27:04.335Z,-5.76
2019-01-30T04:28:04.195Z,-5.76
2019-01-30T04:29:04.053Z,-5.76
2019-01-30T04:30:03.917Z,-5.73
2019-01-30T04:31:03.780Z,-5.62
2019-01-30T04:32:03.641Z,-5.72
2019-01-30T04:33:03.507Z,-5.56
2019-01-30T04:34:03.362Z,-5.65
2019-01-30T04:35:03.225Z,-5.62
2019-01-30T04:36:03.085Z,-5.55
2019-01-30T04:37:02.955Z,-5.51
2019-01-30T04:38:02.805Z,-5.55
2019-01-30T04:39:02.671Z,-5.55
2019-01-30T04:40:02.531Z,-5.47
2019-01-30T04:41:02.394Z,-5.41
2019-01-30T04:42:02.362Z,-5.44
2019-01-30T04:43:02.133Z,-5.45
2019-01-30T04:44:01.978Z,-5.47
2019-01-30T04:45:02.140Z,-5.43
2019-01-30T04:46:01.698Z,-5.41
2019-01-30T04:47:01.560Z,-5.40
2019-01-30T04:48:01.421Z,-5.41
2019-01-30T04:49:01.286Z,-5.37
2019-01-30T04:50:01.146Z,-5.35
2019-01-30T04:51:01.003Z,-5.31
2019-01-30T04:52:00.866Z,-5.30
2019-01-30T04:53:00.731Z,-5.23
2019-01-30T04:54:00.588Z,-5.19
2019-01-30T04:55:00.461Z,-5.20
2019-01-30T04:56:00.312Z,-5.20
2019-01-30T04:57:00.177Z,-5.16
2019-01-30T04:58:00.036Z,-5.20
2019-01-30T04:58:59.897Z,-5.17
2019-01-30T04:59:59.760Z,-5.22
2019-01-30T05:00:59.622Z,-5.07
2019-01-30T05:01:59.481Z,-5.11
2019-01-30T05:02:59.358Z,-5.12
2019-01-30T05:03:59.212Z,-5.03
2019-01-30T05:04:59.064Z,-5.03
2019-01-30T05:05:58.928Z,-5.07
2019-01-30T05:06:58.790Z,-5.04
2019-01-30T05:07:58.651Z,-4.93
2019-01-30T05:08:58.539Z,-4.94
2019-01-30T05:09:58.376Z,-4.95
2019-01-30T05:10:58.247Z,-4.95
2019-01-30T05:11:58.103Z,-4.91
2019-01-30T05:12:57.960Z,-4.93
2019-01-30T05:13:57.819Z,-4.91
2019-01-30T05:14:57.683Z,-5.01
2019-01-30T05:15:57.545Z,-4.97
2019-01-30T05:16:57.404Z,-4.95
2019-01-30T05:17:57.281Z,-4.95
2019-01-30T05:18:57.131Z,-4.91
2019-01-30T05:19:57.017Z,-5.00
2019-01-30T05:20:56.854Z,-4.91
2019-01-30T05:21:56.739Z,-4.94
2019-01-30T05:22:56.580Z,-4.95
2019-01-30T05:23:56.464Z,-4.95
2019-01-30T05:24:56.337Z,-4.94
2019-01-30T05:25:56.165Z,-4.95
2019-01-30T05:26:56.026Z,-4.89
2019-01-30T05:27:55.888Z,-4.93
2019-01-30T05:28:55.749Z,-4.93
2019-01-30T05:29:55.644Z,-4.89
2019-01-30T05:30:55.492Z,-4.95
2019-01-30T05:32:01.256Z,-4.94
2019-01-30T05:32:55.209Z,-4.98
2019-01-30T05:33:55.058Z,-4.97
2019-01-30T05:34:54.922Z,-4.86
2019-01-30T05:35:54.781Z,-4.82
2019-01-30T05:36:54.645Z,-4.77
2019-01-30T05:37:54.506Z,-4.91
2019-01-30T05:38:54.474Z,-4.87
2019-01-30T05:39:54.230Z,-4.87
2019-01-30T05:40:54.096Z,-4.87
2019-01-30T05:41:53.960Z,-4.91
2019-01-30T05:42:53.826Z,-4.94
2019-01-30T05:43:53.681Z,-4.91
2019-01-30T05:44:53.543Z,-4.95
2019-01-30T05:45:53.402Z,-4.93
2019-01-30T05:46:53.266Z,-4.93
2019-01-30T05:47:53.129Z,-4.91
2019-01-30T05:48:52.992Z,-4.89
2019-01-30T05:49:52.850Z,-4.91
2019-01-30T05:50:52.716Z,-4.93
2019-01-30T05:51:52.578Z,-4.91
2019-01-30T05:52:52.437Z,-4.95
2019-01-30T05:53:52.301Z,-4.89
2019-01-30T05:54:52.161Z,-4.94
2019-01-30T05:55:52.022Z,-4.82
2019-01-30T05:56:51.884Z,-4.83
2019-01-30T05:57:51.935Z,-4.86
2019-01-30T05:58:51.610Z,-4.91
2019-01-30T05:59:51.471Z,-4.85
2019-01-30T06:00:51.334Z,-4.94
2019-01-30T06:01:51.196Z,-5.00
2019-01-30T06:02:51.099Z,-4.93
2019-01-30T06:03:50.923Z,-4.94
2019-01-30T06:04:50.783Z,-4.95
2019-01-30T06:05:50.662Z,-4.94
2019-01-30T06:06:50.509Z,-4.97
2019-01-30T06:07:50.368Z,-4.94
2019-01-30T06:08:50.230Z,-4.89
2019-01-30T06:09:50.094Z,-4.98
2019-01-30T06:10:49.955Z,-4.97
2019-01-30T06:11:49.822Z,-4.95
2019-01-30T06:12:49.679Z,-4.89
2019-01-30T06:13:49.546Z,-4.89
2019-01-30T06:14:49.405Z,-4.89
2019-01-30T06:15:49.267Z,-4.93
2019-01-30T06:16:49.133Z,-4.95
2019-01-30T06:17:48.994Z,-4.95
2019-01-30T06:18:48.852Z,-4.93
2019-01-30T06:19:48.715Z,-4.95
2019-01-30T06:20:48.577Z,-4.85
2019-01-30T06:21:48.437Z,-4.93
2019-01-30T06:22:48.303Z,-4.85
2019-01-30T06:23:48.169Z,-4.93
2019-01-30T06:24:48.026Z,-4.91
2019-01-30T06:25:47.888Z,-4.80
2019-01-30T06:26:47.749Z,-4.86
2019-01-30T06:27:47.613Z,-4.83
2019-01-30T06:28:47.473Z,-4.87
2019-01-30T06:29:47.335Z,-4.75
2019-01-30T06:30:47.198Z,-4.80
2019-01-30T06:31:47.059Z,-4.80
2019-01-30T06:32:46.921Z,-4.79
2019-01-30T06:33:46.785Z,-4.69
2019-01-30T06:34:46.646Z,-4.75
2019-01-30T06:35:46.508Z,-4.79
2019-01-30T06:36:46.370Z,-4.65
2019-01-30T06:37:46.230Z,-4.71
2019-01-30T06:38:46.095Z,-4.66
2019-01-30T06:39:45.959Z,-4.75
2019-01-30T06:40:45.818Z,-4.69
2019-01-30T06:41:45.679Z,-4.77
2019-01-30T06:42:45.549Z,-4.66
2019-01-30T06:43:45.405Z,-4.73
2019-01-30T06:44:45.265Z,-4.75
2019-01-30T06:45:45.128Z,-4.73
2019-01-30T06:46:44.989Z,-4.76
2019-01-30T06:47:44.853Z,-4.79
2019-01-30T06:48:44.714Z,-4.77
2019-01-30T06:49:44.577Z,-4.73
2019-01-30T06:50:44.438Z,-4.75
2019-01-30T06:51:44.303Z,-4.69
2019-01-30T06:52:44.164Z,-4.75
2019-01-30T06:53:44.038Z,-4.75
2019-01-30T06:54:43.889Z,-4.77
2019-01-30T06:55:43.751Z,-4.73
2019-01-30T06:56:43.613Z,-4.71
2019-01-30T06:57:43.476Z,-4.73
2019-01-30T06:58:43.342Z,-4.65
2019-01-30T06:59:43.201Z,-4.75
2019-01-30T07:00:43.063Z,-4.66
2019-01-30T07:01:42.931Z,-4.71
2019-01-30T07:02:42.792Z,-4.66
2019-01-30T07:03:42.652Z,-4.65
2019-01-30T07:04:42.511Z,-4.62
2019-01-30T07:05:42.374Z,-4.58
2019-01-30T07:06:42.236Z,-4.62
2019-01-30T07:07:42.101Z,-4.59
2019-01-30T07:08:41.960Z,-4.62
2019-01-30T07:09:41.824Z,-4.61
2019-01-30T07:10:41.686Z,-4.62
2019-01-30T07:11:41.549Z,-4.55
2019-01-30T07:12:41.410Z,-4.44
2019-01-30T07:13:41.275Z,-4.46
2019-01-30T07:14:41.156Z,-4.51
2019-01-30T07:15:40.999Z,-4.33
2019-01-30T07:16:40.859Z,-4.50
2019-01-30T07:17:40.723Z,-4.30
2019-01-30T07:18:40.589Z,-4.37
2019-01-30T07:19:40.447Z,-4.33
2019-01-30T07:20:40.308Z,-4.33
2019-01-30T07:21:40.173Z,-4.29
2019-01-30T07:22:40.036Z,-4.36
2019-01-30T07:23:39.900Z,-4.22
2019-01-30T07:24:39.758Z,-4.22
2019-01-30T07:25:39.625Z,-4.23
2019-01-30T07:26:39.485Z,-4.25
2019-01-30T07:27:39.348Z,-4.19
2019-01-30T07:28:39.209Z,-4.14
2019-01-30T07:29:39.073Z,-4.19
2019-01-30T07:30:38.935Z,-4.08
2019-01-30T07:31:38.796Z,-4.07
2019-01-30T07:32:42.319Z,-4.07
2019-01-30T07:33:38.524Z,-3.99
2019-01-30T07:34:38.386Z,-4.01
2019-01-30T07:35:38.316Z,-3.99
2019-01-30T07:36:38.110Z,-4.05
2019-01-30T07:37:37.971Z,-3.96
2019-01-30T07:38:37.836Z,-3.91
2019-01-30T07:39:37.699Z,-3.99
2019-01-30T07:40:37.561Z,-4.01
2019-01-30T07:41:37.422Z,-3.84
2019-01-30T07:42:37.287Z,-3.90
2019-01-30T07:43:37.148Z,-3.86
2019-01-30T07:44:37.012Z,-3.72
2019-01-30T07:45:36.874Z,-3.81
2019-01-30T07:46:36.737Z,-3.86
2019-01-30T07:47:36.601Z,-3.84
2019-01-30T07:48:36.465Z,-3.76
2019-01-30T07:49:36.327Z,-3.80
2019-01-30T07:50:36.191Z,-3.65
2019-01-30T07:51:36.052Z,-3.64
2019-01-30T07:52:35.914Z,-3.76
2019-01-30T07:53:35.794Z,-3.72
2019-01-30T07:54:35.645Z,-3.70
2019-01-30T07:55:35.592Z,-3.75
2019-01-30T07:56:35.407Z,-3.67
2019-01-30T07:57:35.235Z,-3.76
2019-01-30T07:58:35.104Z,-3.78
2019-01-30T07:59:34.962Z,-3.72
2019-01-30T08:00:34.824Z,-3.62
2019-01-30T08:01:34.687Z,-3.70
2019-01-30T08:02:34.552Z,-3.65
2019-01-30T08:03:34.415Z,-3.65
2019-01-30T08:04:34.278Z,-3.62
2019-01-30T08:05:34.170Z,-3.64
2019-01-30T08:06:34.016Z,-3.61
2019-01-30T08:07:33.870Z,-3.47
2019-01-30T08:08:33.731Z,-3.49
2019-01-30T08:09:33.597Z,-3.51
2019-01-30T08:10:33.458Z,-3.41
2019-01-30T08:11:33.326Z,-3.41
2019-01-30T08:12:33.187Z,-3.36
2019-01-30T08:13:33.052Z,-3.41
2019-01-30T08:14:32.917Z,-3.33
2019-01-30T08:15:32.777Z,-3.25
2019-01-30T08:16:32.645Z,-3.29
2019-01-30T08:17:32.505Z,-3.32
2019-01-30T08:18:32.384Z,-3.26
2019-01-30T08:19:32.234Z,-3.17
2019-01-30T08:20:32.099Z,-3.18
2019-01-30T08:21:31.962Z,-3.08
2019-01-30T08:22:31.831Z,-3.14
2019-01-30T08:23:31.989Z,-3.07
2019-01-30T08:24:31.801Z,-2.97
2019-01-30T08:25:31.596Z,-3.02
2019-01-30T08:26:31.668Z,-3.08
2019-01-30T08:27:31.606Z,-3.10
2019-01-30T08:28:31.032Z,-3.07
2019-01-30T08:29:30.890Z,-3.08
2019-01-30T08:30:30.884Z,-3.07
2019-01-30T08:31:30.824Z,-2.99
2019-01-30T08:32:30.636Z,-3.05
2019-01-30T08:33:30.335Z,-3.00
2019-01-30T08:34:30.199Z,-2.96
2019-01-30T08:35:30.064Z,-2.90
2019-01-30T08:36:29.928Z,-2.85
2019-01-30T08:37:29.866Z,-2.86
2019-01-30T08:38:29.657Z,-2.81
2019-01-30T08:39:29.523Z,-2.74
2019-01-30T08:40:29.386Z,-2.68
2019-01-30T08:41:29.254Z,-2.58
2019-01-30T08:42:29.116Z,-2.63
2019-01-30T08:43:28.981Z,-2.66
2019-01-30T08:44:28.845Z,-2.71
2019-01-30T08:45:28.708Z,-2.74
2019-01-30T08:46:28.575Z,-2.72
2019-01-30T08:47:28.440Z,-2.71
2019-01-30T08:48:30.164Z,-2.69
2019-01-30T08:49:28.168Z,-2.60
2019-01-30T08:50:28.033Z,-2.66
2019-01-30T08:51:27.908Z,-2.60
2019-01-30T08:52:27.762Z,-2.68
2019-01-30T08:53:27.627Z,-2.60
2019-01-30T08:54:27.497Z,-2.63
2019-01-30T08:55:27.358Z,-2.61
2019-01-30T08:56:27.223Z,-2.66
2019-01-30T08:57:27.085Z,-2.61
2019-01-30T08:58:26.951Z,-2.53
2019-01-30T08:59:26.817Z,-2.61
2019-01-30T09:00:26.680Z,-2.51
2019-01-30T09:01:26.543Z,-2.54
2019-01-30T09:02:26.410Z,-2.47
2019-01-30T09:03:26.276Z,-2.43
2019-01-30T09:04:26.147Z,-2.39
2019-01-30T09:05:26.005Z,-2.24
2019-01-30T09:06:25.869Z,-2.32
2019-01-30T09:07:25.736Z,-2.10
2019-01-30T09:08:25.597Z,-2.08
2019-01-30T09:09:25.463Z,-2.11
2019-01-30T09:10:25.326Z,-2.02
2019-01-30T09:11:25.192Z,-1.90
2019-01-30T09:12:25.055Z,-1.90
2019-01-30T09:13:25.702Z,-1.90
2019-01-30T09:14:24.788Z,-1.88
2019-01-30T09:15:24.666Z,-1.72
2019-01-30T09:16:24.519Z,-1.62
2019-01-30T09:17:24.385Z,-1.69
2019-01-30T09:18:24.252Z,-1.64
2019-01-30T09:19:24.120Z,-1.64
2019-01-30T09:20:23.985Z,-1.59
2019-01-30T09:21:23.845Z,-1.49
2019-01-30T09:22:23.710Z,-1.46
2019-01-30T09:23:23.576Z,-1.33
2019-01-30T09:24:23.440Z,-1.30
2019-01-30T09:25:23.307Z,-1.25
2019-01-30T09:26:23.175Z,-1.33
2019-01-30T09:27:24.317Z,-1.28
2019-01-30T09:28:22.905Z,-1.27
2019-01-30T09:29:22.772Z,-1.13
2019-01-30T09:30:22.636Z,-1.03
2019-01-30T09:31:22.501Z,-1.15
2019-01-30T09:32:22.372Z,-1.09
2019-01-30T09:33:25.892Z,-1.18
2019-01-30T09:34:22.101Z,-1.21
2019-01-30T09:35:21.969Z,-1.25
2019-01-30T09:36:21.963Z,-1.30
2019-01-30T09:37:21.697Z,-1.28
2019-01-30T09:38:21.578Z,-1.20
2019-01-30T09:39:21.431Z,-1.27
2019-01-30T09:40:21.294Z,-1.18
2019-01-30T09:41:21.161Z,-1.06
2019-01-30T09:42:21.026Z,-1.02
2019-01-30T09:43:20.938Z,-0.81
2019-01-30T09:44:20.759Z,-0.73
2019-01-30T09:45:20.633Z,-0.62
2019-01-30T09:46:20.491Z,-0.52
2019-01-30T09:47:20.357Z,-0.52
2019-01-30T09:48:20.222Z,-0.34
2019-01-30T09:49:20.098Z,-0.39
2019-01-30T09:50:19.959Z,-0.29
2019-01-30T09:51:19.823Z,-0.24
2019-01-30T09:52:26.683Z,-0.23
2019-01-30T09:53:19.556Z,-0.09
2019-01-30T09:54:19.422Z,-0.12
2019-01-30T09:55:19.292Z,-0.11
2019-01-30T09:56:19.154Z,-0.06
2019-01-30T09:57:19.050Z,0.10
2019-01-30T09:58:18.889Z,0.12
2019-01-30T09:59:18.757Z,0.13
2019-01-30T10:00:18.623Z,0.24
2019-01-30T10:01:18.490Z,0.10
2019-01-30T10:02:18.359Z,-0.11
2019-01-30T10:03:18.225Z,-0.16
2019-01-30T10:04:19.572Z,-0.24
2019-01-30T10:05:17.958Z,-0.33
2019-01-30T10:06:17.826Z,-0.41
2019-01-30T10:07:17.695Z,-0.42
2019-01-30T10:08:17.561Z,-0.41
2019-01-30T10:09:17.428Z,-0.39
2019-01-30T10:10:17.293Z,-0.16
2019-01-30T10:11:17.161Z,-0.16
2019-01-30T10:12:17.027Z,-0.11
2019-01-30T10:13:16.894Z,-0.04
2019-01-30T10:14:16.762Z,0.02
2019-01-30T10:15:16.639Z,0.06
2019-01-30T10:16:16.497Z,0.16
2019-01-30T10:17:16.368Z,0.07
2019-01-30T10:18:16.232Z,0.12
2019-01-30T10:19:16.098Z,0.10
2019-01-30T10:20:15.964Z,0.09
2019-01-30T10:21:15.832Z,0.00
2019-01-30T10:22:15.698Z,-0.31
2019-01-30T10:23:15.566Z,-0.42
2019-01-30T10:24:15.435Z,-0.36
2019-01-30T10:25:15.301Z,-0.23
2019-01-30T10:26:15.171Z,-0.01
2019-01-30T10:27:15.034Z,0.06
2019-01-30T10:28:16.593Z,0.09
2019-01-30T10:29:14.768Z,0.13
2019-01-30T10:30:14.636Z,0.10
2019-01-30T10:31:14.507Z,0.03
2019-01-30T10:32:14.370Z,0.16
2019-01-30T10:33:14.238Z,0.24
2019-01-30T10:34:14.105Z,0.33
2019-01-30T10:35:13.974Z,0.16
2019-01-30T10:36:13.841Z,0.07
2019-01-30T10:37:13.710Z,0.15
2019-01-30T10:38:13.574Z,0.15
2019-01-30T10:39:13.442Z,0.31
2019-01-30T10:40:13.349Z,0.30
2019-01-30T10:41:13.175Z,0.30
2019-01-30T10:42:13.043Z,0.25
2019-01-30T10:43:12.912Z,0.28
2019-01-30T10:44:12.780Z,0.09
2019-01-30T10:45:12.654Z,0.10
2019-01-30T10:46:12.512Z,0.13
2019-01-30T10:47:12.380Z,0.07
2019-01-30T10:48:12.250Z,0.09
2019-01-30T10:49:12.113Z,0.27
2019-01-30T10:50:11.981Z,0.15
2019-01-30T10:51:11.851Z,0.03
2019-01-30T10:52:11.815Z,0.24
2019-01-30T10:53:11.589Z,0.58
2019-01-30T10:54:11.450Z,0.53
2019-01-30T10:55:11.321Z,0.62
2019-01-30T10:56:11.188Z,0.62
2019-01-30T10:57:11.053Z,0.88
2019-01-30T10:58:10.920Z,0.72
2019-01-30T10:59:10.788Z,0.85
2019-01-30T11:00:10.655Z,0.92
2019-01-30T11:01:10.522Z,0.90
2019-01-30T11:02:10.390Z,0.62
2019-01-30T11:03:10.260Z,0.62
2019-01-30T11:04:10.126Z,0.60
2019-01-30T11:05:10.002Z,0.70
2019-01-30T11:06:09.864Z,0.72
2019-01-30T11:07:09.730Z,0.83
2019-01-30T11:08:09.598Z,0.90
2019-01-30T11:09:09.464Z,0.85
2019-01-30T11:10:09.342Z,0.72
2019-01-30T11:11:09.205Z,0.83
2019-01-30T11:12:09.070Z,0.76
2019-01-30T11:13:08.939Z,0.83
2019-01-30T11:14:08.804Z,1.04
2019-01-30T11:15:08.674Z,0.97
2019-01-30T11:16:08.544Z,0.98
2019-01-30T11:17:08.765Z,0.94
2019-01-30T11:18:08.277Z,0.78
2019-01-30T11:19:08.145Z,0.82
2019-01-30T11:20:08.013Z,0.58
2019-01-30T11:21:07.887Z,0.65
2019-01-30T11:22:07.750Z,0.57
2019-01-30T11:23:07.621Z,0.60
2019-01-30T11:24:07.485Z,0.72
2019-01-30T11:25:07.352Z,0.78
2019-01-30T11:26:07.222Z,0.92
2019-01-30T11:27:07.089Z,1.03
2019-01-30T11:28:07.032Z,1.28
2019-01-30T11:29:06.827Z,1.25
2019-01-30T11:30:06.711Z,1.21
2019-01-30T11:31:06.565Z,1.33
2019-01-30T11:32:06.429Z,1.19
2019-01-30T11:33:06.300Z,0.96
2019-01-30T11:34:07.606Z,0.82
2019-01-30T11:35:06.036Z,0.79
2019-01-30T11:36:05.903Z,0.79
2019-01-30T11:37:05.772Z,0.86
2019-01-30T11:38:05.646Z,0.90
2019-01-30T11:39:05.513Z,1.10
2019-01-30T11:40:05.387Z,1.25
2019-01-30T11:41:05.250Z,1.37
2019-01-30T11:42:05.115Z,1.44
2019-01-30T11:43:04.983Z,1.62
2019-01-30T11:44:04.851Z,1.78
2019-01-30T11:45:04.719Z,1.55
2019-01-30T11:46:04.589Z,1.44
2019-01-30T11:47:04.460Z,1.58
2019-01-30T11:48:04.325Z,1.71
2019-01-30T11:49:04.193Z,1.72
2019-01-30T11:50:04.061Z,1.62
2019-01-30T11:51:03.931Z,1.60
2019-01-30T11:52:03.803Z,1.94
2019-01-30T11:53:03.747Z,2.13
2019-01-30T11:54:03.536Z,1.98
2019-01-30T11:55:03.405Z,1.98
2019-01-30T11:56:03.383Z,1.64
2019-01-30T11:57:03.145Z,1.47
2019-01-30T11:58:03.011Z,1.28
2019-01-30T11:59:02.881Z,1.03
2019-01-30T12:00:02.749Z,0.75
2019-01-30T12:01:03.488Z,0.83
2019-01-30T12:02:02.495Z,1.04
2019-01-30T12:03:02.355Z,1.21
2019-01-30T12:04:02.226Z,1.40
2019-01-30T12:05:02.094Z,1.40
2019-01-30T12:06:01.963Z,1.36
2019-01-30T12:07:01.831Z,1.37
2019-01-30T12:08:01.702Z,1.43
2019-01-30T12:09:01.565Z,1.71
2019-01-30T12:10:01.437Z,1.69
2019-01-30T12:11:01.304Z,1.72
2019-01-30T12:12:01.171Z,1.75
2019-01-30T12:13:01.040Z,1.78
2019-01-30T12:14:00.908Z,2.02
2019-01-30T12:15:00.781Z,2.08
2019-01-30T12:16:00.644Z,1.85
2019-01-30T12:17:00.515Z,1.64
2019-01-30T12:18:00.386Z,1.64
2019-01-30T12:19:00.314Z,1.54
2019-01-30T12:20:00.331Z,1.39
2019-01-30T12:20:59.991Z,1.39
2019-01-30T12:21:59.860Z,1.50
2019-01-30T12:22:59.725Z,1.60
2019-01-30T12:23:59.594Z,1.91
2019-01-30T12:24:59.462Z,1.98
2019-01-30T12:25:59.330Z,2.12
2019-01-30T12:26:59.197Z,2.20
2019-01-30T12:27:59.105Z,2.38
2019-01-30T12:28:58.938Z,2.44
2019-01-30T12:29:58.806Z,2.35
2019-01-30T12:30:58.671Z,2.41
2019-01-30T12:31:58.546Z,2.61
2019-01-30T12:32:58.412Z,2.49
2019-01-30T12:33:59.230Z,2.48
2019-01-30T12:34:58.148Z,2.48
2019-01-30T12:35:58.019Z,2.44
2019-01-30T12:36:57.887Z,2.19
2019-01-30T12:37:57.756Z,2.12
2019-01-30T12:38:57.624Z,2.12
2019-01-30T12:39:57.493Z,2.28
2019-01-30T12:40:57.361Z,2.26
2019-01-30T12:41:57.230Z,2.20
2019-01-30T12:42:57.099Z,2.12
2019-01-30T12:43:56.965Z,2.13
2019-01-30T12:44:56.836Z,2.16
2019-01-30T12:45:56.705Z,2.10
2019-01-30T12:46:56.576Z,1.97
2019-01-30T12:47:56.442Z,1.54
2019-01-30T12:48:56.310Z,1.54
2019-01-30T12:49:56.181Z,1.52
2019-01-30T12:50:56.050Z,1.46
2019-01-30T12:51:55.919Z,1.51
2019-01-30T12:52:55.801Z,1.46
2019-01-30T12:53:55.657Z,1.14
2019-01-30T12:54:55.523Z,1.14
2019-01-30T12:55:55.392Z,1.18